createdAt,value
2018-07-24T00:00:06.797Z,101707.86
2018-07-24T00:02:35.104Z,101704.19
2018-07-24T00:05:03.572Z,101710.20
2018-07-24T00:07:31.857Z,101704.01
2018-07-24T00:10:01.913Z,101699.48
2018-07-24T00:12:30.318Z,101700.70
2018-07-24T00:14:58.601Z,101695.55
2018-07-24T00:17:26.885Z,101694.60
2018-07-24T00:19:55.169Z,101693.78
2018-07-24T00:22:23.429Z,101693.03
2018-07-24T00:24:51.781Z,101692.02
2018-07-24T00:27:20.025Z,101695.47
2018-07-24T00:29:48.294Z,101692.66
2018-07-24T00:32:16.620Z,101690.47
2018-07-24T00:34:44.814Z,101692.62
2018-07-24T00:37:13.181Z,101687.02
2018-07-24T00:39:41.440Z,101682.41
2018-07-24T00:42:09.725Z,101685.77
2018-07-24T00:44:37.969Z,101681.77
2018-07-24T00:47:06.269Z,101673.59
2018-07-24T00:49:34.513Z,101674.64
2018-07-24T00:52:02.788Z,101670.97
2018-07-24T00:54:31.025Z,101665.82
2018-07-24T00:56:59.302Z,101669.31
2018-07-24T00:59:27.617Z,101671.14
2018-07-24T01:01:56.065Z,101669.13
2018-07-24T01:04:24.313Z,101665.47
2018-07-24T01:06:52.586Z,101667.87
2018-07-24T01:09:20.821Z,101665.91
2018-07-24T01:11:49.106Z,101672.42
2018-07-24T01:14:17.347Z,101666.24
2018-07-24T01:16:45.617Z,101663.73
2018-07-24T01:19:13.861Z,101665.27
2018-07-24T01:21:42.137Z,101671.26
2018-07-24T01:24:10.386Z,101669.28
2018-07-24T01:26:38.744Z,101669.59
2018-07-24T01:29:07.052Z,101673.76
2018-07-24T01:31:35.292Z,101677.92
2018-07-24T01:34:03.590Z,101678.25
2018-07-24T01:36:31.842Z,101673.63
2018-07-24T01:39:00.142Z,101674.27
2018-07-24T01:41:28.409Z,101672.94
2018-07-24T01:43:56.685Z,101671.97
2018-07-24T01:46:24.917Z,101669.11
2018-07-24T01:48:53.177Z,101669.95
2018-07-24T01:51:21.433Z,101665.13
2018-07-24T01:53:49.704Z,101663.48
2018-07-24T01:56:17.941Z,101653.66
2018-07-24T01:58:46.205Z,101653.32
2018-07-24T02:01:17.328Z,101649.68
2018-07-24T02:03:45.605Z,101652.16
2018-07-24T02:06:14.029Z,101657.00
2018-07-24T02:08:42.301Z,101650.19
2018-07-24T02:11:10.549Z,101651.02
2018-07-24T02:13:38.852Z,101651.70
2018-07-24T02:16:07.169Z,101651.05
2018-07-24T02:18:35.444Z,101655.53
2018-07-24T02:21:03.726Z,101650.04
2018-07-24T02:23:31.997Z,101645.38
2018-07-24T02:26:00.297Z,101652.39
2018-07-24T02:28:28.568Z,101654.20
2018-07-24T02:30:56.861Z,101655.36
2018-07-24T02:33:25.106Z,101650.37
2018-07-24T02:35:53.385Z,101649.37
2018-07-24T02:38:21.640Z,101646.70
2018-07-24T02:40:49.918Z,101649.54
2018-07-24T02:43:24.204Z,101644.41
2018-07-24T02:45:52.534Z,101649.39
2018-07-24T02:48:20.802Z,101656.38
2018-07-24T02:50:49.105Z,101646.72
2018-07-24T02:53:17.369Z,101644.40
2018-07-24T02:55:45.695Z,101653.38
2018-07-24T02:58:13.973Z,101647.73
2018-07-24T03:00:42.267Z,101646.22
2018-07-24T03:03:10.534Z,101652.39
2018-07-24T03:05:38.865Z,101648.73
2018-07-24T03:08:07.143Z,101649.71
2018-07-24T03:10:35.452Z,101652.53
2018-07-24T03:13:03.765Z,101647.40
2018-07-24T03:15:33.077Z,101648.38
2018-07-24T03:18:01.326Z,101646.88
2018-07-24T03:20:29.625Z,101655.02
2018-07-24T03:22:57.981Z,101658.66
2018-07-24T03:25:26.300Z,101658.69
2018-07-24T03:27:54.693Z,101656.01
2018-07-24T03:30:22.953Z,101658.67
2018-07-24T03:32:52.265Z,101658.84
2018-07-24T03:35:20.516Z,101663.35
2018-07-24T03:37:49.817Z,101661.94
2018-07-24T03:40:18.137Z,101660.50
2018-07-24T03:42:46.441Z,101659.51
2018-07-24T03:45:14.717Z,101658.53
2018-07-24T03:47:43.121Z,101658.84
2018-07-24T03:50:11.369Z,101659.02
2018-07-24T03:52:40.702Z,101661.35
2018-07-24T03:55:09.094Z,101661.67
2018-07-24T03:57:37.398Z,101660.50
2018-07-24T04:00:06.457Z,101659.33
2018-07-24T04:02:34.753Z,101654.50
2018-07-24T04:05:03.069Z,101659.48
2018-07-24T04:07:31.361Z,101657.62
2018-07-24T04:09:59.622Z,101661.61
2018-07-24T04:12:27.917Z,101671.44
2018-07-24T04:14:56.198Z,101667.95
2018-07-24T04:17:24.464Z,101664.94
2018-07-24T04:19:52.745Z,101652.87
2018-07-24T04:22:21.021Z,101659.27
2018-07-24T04:24:49.323Z,101655.62
2018-07-24T04:27:17.615Z,101659.52
2018-07-24T04:29:45.896Z,101659.55
2018-07-24T04:32:14.325Z,101652.25
2018-07-24T04:34:42.631Z,101655.27
2018-07-24T04:37:10.901Z,101657.78
2018-07-24T04:39:40.200Z,101662.55
2018-07-24T04:42:08.820Z,101661.83
2018-07-24T04:44:38.188Z,101657.15
2018-07-24T04:47:06.465Z,101660.73
2018-07-24T04:49:34.821Z,101659.36
2018-07-24T04:52:03.109Z,101656.25
2018-07-24T04:54:31.405Z,101651.06
2018-07-24T04:56:59.665Z,101658.23
2018-07-24T04:59:27.968Z,101652.02
2018-07-24T05:01:56.409Z,101652.66
2018-07-24T05:04:24.805Z,101655.56
2018-07-24T05:06:53.078Z,101660.05
2018-07-24T05:09:21.452Z,101661.69
2018-07-24T05:11:49.713Z,101659.61
2018-07-24T05:14:17.976Z,101659.44
2018-07-24T05:16:47.352Z,101658.34
2018-07-24T05:19:15.557Z,101660.50
2018-07-24T05:21:43.834Z,101653.13
2018-07-24T05:24:12.101Z,101655.47
2018-07-24T05:26:40.450Z,101658.45
2018-07-24T05:29:08.673Z,101665.03
2018-07-24T05:31:36.966Z,101658.52
2018-07-24T05:34:06.267Z,101651.61
2018-07-24T05:36:34.576Z,101649.60
2018-07-24T05:39:02.865Z,101649.33
2018-07-24T05:41:31.153Z,101647.45
2018-07-24T05:43:59.416Z,101654.55
2018-07-24T05:46:27.701Z,101649.50
2018-07-24T05:48:56.046Z,101656.95
2018-07-24T05:51:24.288Z,101656.59
2018-07-24T05:53:52.544Z,101662.52
2018-07-24T05:56:20.854Z,101668.30
2018-07-24T05:58:49.108Z,101668.89
2018-07-24T06:01:17.362Z,101669.23
2018-07-24T06:03:45.648Z,101666.92
2018-07-24T06:06:13.905Z,101663.53
2018-07-24T06:08:42.189Z,101664.88
2018-07-24T06:11:10.449Z,101672.39
2018-07-24T06:13:38.730Z,101664.39
2018-07-24T06:16:07.002Z,101673.55
2018-07-24T06:18:35.282Z,101671.09
2018-07-24T06:21:03.549Z,101670.35
2018-07-24T06:23:31.913Z,101670.50
2018-07-24T06:26:00.317Z,101674.61
2018-07-24T06:28:28.610Z,101673.26
2018-07-24T06:30:56.887Z,101669.34
2018-07-24T06:33:25.197Z,101668.14
2018-07-24T06:35:53.694Z,101669.79
2018-07-24T06:38:21.971Z,101666.28
2018-07-24T06:40:50.227Z,101667.83
2018-07-24T06:43:18.517Z,101668.16
2018-07-24T06:45:46.801Z,101673.81
2018-07-24T06:48:15.143Z,101665.84
2018-07-24T06:50:43.398Z,101664.64
2018-07-24T06:53:11.645Z,101669.30
2018-07-24T06:55:39.926Z,101666.06
2018-07-24T06:58:08.204Z,101662.04
2018-07-24T07:00:36.489Z,101661.22
2018-07-24T07:03:04.756Z,101667.20
2018-07-24T07:05:34.045Z,101665.34
2018-07-24T07:08:02.322Z,101668.19
2018-07-24T07:10:30.613Z,101660.27
2018-07-24T07:12:58.926Z,101656.76
2018-07-24T07:15:27.170Z,101660.66
2018-07-24T07:17:56.502Z,101658.40
2018-07-24T07:20:24.812Z,101659.66
2018-07-24T07:22:53.085Z,101663.26
2018-07-24T07:25:21.381Z,101665.92
2018-07-24T07:27:49.669Z,101661.56
2018-07-24T07:30:19.034Z,101663.56
2018-07-24T07:32:47.297Z,101657.80
2018-07-24T07:35:15.623Z,101660.09
2018-07-24T07:37:43.881Z,101651.91
2018-07-24T07:40:12.281Z,101658.50
2018-07-24T07:42:41.601Z,101661.74
2018-07-24T07:45:09.940Z,101655.89
2018-07-24T07:47:38.694Z,101652.25
2018-07-24T07:50:07.965Z,101651.88
2018-07-24T07:52:36.326Z,101652.80
2018-07-24T07:55:05.565Z,101649.08
2018-07-24T07:57:33.884Z,101642.05
2018-07-24T08:00:02.169Z,101644.23
2018-07-24T08:02:30.493Z,101638.11
2018-07-24T08:04:58.769Z,101637.14
2018-07-24T08:07:27.048Z,101639.33
2018-07-24T08:09:55.317Z,101639.88
2018-07-24T08:12:24.658Z,101636.87
2018-07-24T08:14:52.889Z,101629.13
2018-07-24T08:17:21.172Z,101646.63
2018-07-24T08:19:49.456Z,101634.60
2018-07-24T08:22:19.791Z,101619.98
2018-07-24T08:24:48.060Z,101619.33
2018-07-24T08:27:16.401Z,101622.02
2018-07-24T08:29:45.708Z,101616.70
2018-07-24T08:32:13.996Z,101623.22
2018-07-24T08:34:42.270Z,101623.27
2018-07-24T08:37:10.603Z,101616.94
2018-07-24T08:39:38.968Z,101618.15
2018-07-24T08:42:07.261Z,101620.79
2018-07-24T08:44:35.544Z,101622.72
2018-07-24T08:47:03.801Z,101620.86
2018-07-24T08:49:32.090Z,101612.59
2018-07-24T08:52:00.395Z,101614.08
2018-07-24T08:54:28.909Z,101618.58
2018-07-24T08:56:58.077Z,101615.84
2018-07-24T08:59:27.450Z,101619.64
2018-07-24T09:01:55.753Z,101614.58
2018-07-24T09:04:25.083Z,101610.66
2018-07-24T09:06:53.407Z,101624.23
2018-07-24T09:09:21.708Z,101624.18
2018-07-24T09:11:52.027Z,101620.09
2018-07-24T09:14:20.673Z,101624.24
2018-07-24T09:16:48.941Z,101622.89
2018-07-24T09:19:17.328Z,101629.09
2018-07-24T09:21:45.601Z,101624.50
2018-07-24T09:24:13.916Z,101624.43
2018-07-24T09:26:42.206Z,101624.07
2018-07-24T09:29:10.553Z,101622.48
2018-07-24T09:31:40.002Z,101619.40
2018-07-24T09:34:08.446Z,101624.39
2018-07-24T09:36:37.773Z,101624.45
2018-07-24T09:39:08.857Z,101623.85
2018-07-24T09:41:37.443Z,101620.95
2018-07-24T09:44:05.746Z,101612.39
2018-07-24T09:46:35.094Z,101617.98
2018-07-24T09:49:03.386Z,101616.00
2018-07-24T09:51:31.713Z,101610.73
2018-07-24T09:53:59.985Z,101606.50
2018-07-24T09:56:28.317Z,101600.66
2018-07-24T09:58:56.541Z,101604.69
2018-07-24T10:01:33.828Z,101601.05
2018-07-24T10:04:02.849Z,101613.66
2018-07-24T10:06:31.721Z,101595.08
2018-07-24T10:09:01.014Z,101600.78
2018-07-24T10:11:29.361Z,101610.83
2018-07-24T10:13:59.916Z,101609.16
2018-07-24T10:16:28.236Z,101604.59
2018-07-24T10:18:57.540Z,101604.47
2018-07-24T10:21:29.222Z,101605.56
2018-07-24T10:23:57.497Z,101602.66
2018-07-24T10:26:25.825Z,101594.84
2018-07-24T10:28:54.102Z,101597.05
2018-07-24T10:31:22.405Z,101596.55
2018-07-24T10:33:50.688Z,101597.18
2018-07-24T10:36:19.014Z,101596.11
2018-07-24T10:38:47.281Z,101599.63
2018-07-24T10:41:15.591Z,101593.20
2018-07-24T10:43:44.898Z,101591.84
2018-07-24T10:46:14.273Z,101592.02
2018-07-24T10:48:44.566Z,101589.55
2018-07-24T10:51:12.957Z,101582.65
2018-07-24T10:53:41.949Z,101580.83
2018-07-24T10:56:10.225Z,101579.67
2018-07-24T10:58:38.536Z,101576.77
2018-07-24T11:01:06.861Z,101578.98
2018-07-24T11:03:35.185Z,101575.75
2018-07-24T11:06:03.473Z,101570.80
2018-07-24T11:08:31.777Z,101570.52
2018-07-24T11:11:00.108Z,101568.30
2018-07-24T11:13:28.361Z,101568.52
2018-07-24T11:15:56.634Z,101567.44
2018-07-24T11:18:24.969Z,101570.14
2018-07-24T11:20:53.257Z,101562.84
2018-07-24T11:23:21.659Z,101561.86
2018-07-24T11:25:50.880Z,101556.23
2018-07-24T11:28:19.236Z,101548.95
2018-07-24T11:30:47.582Z,101550.87
2018-07-24T11:33:15.958Z,101549.64
2018-07-24T11:35:44.337Z,101542.73
2018-07-24T11:38:13.525Z,101535.47
2018-07-24T11:40:41.946Z,101539.27
2018-07-24T11:43:10.220Z,101542.69
2018-07-24T11:45:38.537Z,101547.27
2018-07-24T11:48:06.840Z,101544.29
2018-07-24T11:50:35.269Z,101543.39
2018-07-24T11:53:04.644Z,101542.17
2018-07-24T11:55:33.038Z,101539.58
2018-07-24T11:58:01.336Z,101540.42
2018-07-24T12:00:30.681Z,101542.67
2018-07-24T12:02:58.958Z,101539.16
2018-07-24T12:05:27.259Z,101543.84
2018-07-24T12:07:56.687Z,101535.65
2018-07-24T12:10:28.245Z,101540.23
2018-07-24T12:12:56.521Z,101537.57
2018-07-24T12:15:24.840Z,101532.19
2018-07-24T12:17:53.135Z,101529.28
2018-07-24T12:20:21.469Z,101530.43
2018-07-24T12:22:49.766Z,101519.20
2018-07-24T12:25:18.087Z,101525.17
2018-07-24T12:27:46.410Z,101515.83
2018-07-24T12:30:14.685Z,101520.17
2018-07-24T12:32:43.010Z,101508.37
2018-07-24T12:35:11.283Z,101509.78
2018-07-24T12:37:40.633Z,101508.02
2018-07-24T12:40:08.920Z,101507.04
2018-07-24T12:42:38.276Z,101503.33
2018-07-24T12:45:06.714Z,101504.20
2018-07-24T12:47:39.522Z,101500.54
2018-07-24T12:50:08.053Z,101500.91
2018-07-24T12:52:37.453Z,101493.03
2018-07-24T12:55:05.785Z,101488.41
2018-07-24T12:57:34.169Z,101493.46
2018-07-24T13:00:02.805Z,101494.27
2018-07-24T13:02:31.117Z,101493.66
2018-07-24T13:04:59.594Z,101487.78
2018-07-24T13:07:28.007Z,101485.23
2018-07-24T13:09:56.345Z,101485.39
2018-07-24T13:12:24.617Z,101478.30
2018-07-24T13:14:52.951Z,101480.81
2018-07-24T13:17:21.286Z,101472.14
2018-07-24T13:19:50.654Z,101473.43
2018-07-24T13:22:18.993Z,101482.38
2018-07-24T13:24:47.268Z,101469.53
2018-07-24T13:27:15.619Z,101472.20
2018-07-24T13:29:44.961Z,101464.75
2018-07-24T13:32:13.331Z,101474.55
2018-07-24T13:34:41.578Z,101472.83
2018-07-24T13:37:09.854Z,101472.50
2018-07-24T13:39:38.189Z,101472.11
2018-07-24T13:42:06.497Z,101468.59
2018-07-24T13:44:34.807Z,101461.66
2018-07-24T13:47:03.178Z,101459.58
2018-07-24T13:49:31.488Z,101464.83
2018-07-24T13:52:00.783Z,101455.44
2018-07-24T13:54:29.138Z,101457.66
2018-07-24T13:56:58.461Z,101453.87
2018-07-24T13:59:26.833Z,101451.47
2018-07-24T14:01:55.101Z,101447.84
2018-07-24T14:04:23.417Z,101450.74
2018-07-24T14:06:51.698Z,101443.97
2018-07-24T14:09:20.014Z,101457.08
2018-07-24T14:11:48.294Z,101447.61
2018-07-24T14:14:16.742Z,101457.05
2018-07-24T14:16:44.937Z,101450.27
2018-07-24T14:19:13.245Z,101450.56
2018-07-24T14:21:41.580Z,101451.11
2018-07-24T14:24:10.697Z,101450.68
2018-07-24T14:26:40.018Z,101447.13
2018-07-24T14:29:09.306Z,101439.42
2018-07-24T14:31:37.590Z,101443.44
2018-07-24T14:34:06.898Z,101445.09
2018-07-24T14:36:35.253Z,101439.30
2018-07-24T14:39:03.665Z,101448.52
2018-07-24T14:41:33.124Z,101447.17
2018-07-24T14:44:01.401Z,101451.69
2018-07-24T14:46:29.750Z,101454.53
2018-07-24T14:48:57.986Z,101452.64
2018-07-24T14:51:26.284Z,101449.15
2018-07-24T14:53:54.570Z,101453.70
2018-07-24T14:56:22.882Z,101462.44
2018-07-24T14:58:51.190Z,101456.26
2018-07-24T15:01:19.697Z,101455.77
2018-07-24T15:03:47.973Z,101449.36
2018-07-24T15:06:16.292Z,101453.83
2018-07-24T15:08:44.572Z,101451.02
2018-07-24T15:11:12.907Z,101453.89
2018-07-24T15:13:41.217Z,101452.61
2018-07-24T15:16:09.535Z,101449.59
2018-07-24T15:18:37.797Z,101449.38
2018-07-24T15:21:06.081Z,101449.38
2018-07-24T15:23:35.411Z,101452.12
2018-07-24T15:26:04.162Z,101449.09
2018-07-24T15:28:32.508Z,101442.06
2018-07-24T15:31:00.794Z,101454.91
2018-07-24T15:33:29.099Z,101445.11
2018-07-24T15:35:57.414Z,101449.48
2018-07-24T15:38:25.701Z,101441.34
2018-07-24T15:40:54.027Z,101450.27
2018-07-24T15:43:22.409Z,101450.48
2018-07-24T15:45:51.719Z,101449.82
2018-07-24T15:48:20.049Z,101442.44
2018-07-24T15:50:48.879Z,101447.77
2018-07-24T15:53:17.205Z,101452.16
2018-07-24T15:55:46.545Z,101446.02
2018-07-24T15:58:14.985Z,101449.54
2018-07-24T16:00:44.329Z,101443.25
2018-07-24T16:03:12.643Z,101449.07
2018-07-24T16:05:40.933Z,101445.25
2018-07-24T16:08:09.307Z,101447.47
2018-07-24T16:10:37.577Z,101438.41
2018-07-24T16:13:05.915Z,101445.53
2018-07-24T16:15:34.343Z,101440.60
2018-07-24T16:18:02.503Z,101446.61
2018-07-24T16:20:30.810Z,101448.96
2018-07-24T16:22:59.061Z,101451.98
2018-07-24T16:25:27.405Z,101449.22
2018-07-24T16:27:56.680Z,101446.39
2018-07-24T16:30:24.993Z,101445.93
2018-07-24T16:32:53.269Z,101446.72
2018-07-24T16:35:21.581Z,101446.73
2018-07-24T16:37:49.893Z,101448.61
2018-07-24T16:40:18.233Z,101440.89
2018-07-24T16:42:46.553Z,101438.48
2018-07-24T16:45:14.858Z,101438.80
2018-07-24T16:47:45.361Z,101436.31
2018-07-24T16:50:13.741Z,101432.57
2018-07-24T16:52:42.017Z,101431.34
2018-07-24T16:55:10.358Z,101424.70
2018-07-24T16:57:38.635Z,101427.44
2018-07-24T17:00:08.046Z,101432.88
2018-07-24T17:02:36.324Z,101432.16
2018-07-24T17:05:04.617Z,101433.87
2018-07-24T17:07:32.965Z,101425.23
2018-07-24T17:10:03.393Z,101428.16
2018-07-24T17:12:31.719Z,101425.88
2018-07-24T17:14:59.996Z,101429.56
2018-07-24T17:17:28.326Z,101432.89
2018-07-24T17:19:56.681Z,101428.06
2018-07-24T17:22:25.040Z,101432.05
2018-07-24T17:24:53.325Z,101431.84
2018-07-24T17:27:21.670Z,101430.63
2018-07-24T17:29:49.976Z,101425.45
2018-07-24T17:32:18.305Z,101433.36
2018-07-24T17:34:46.606Z,101435.53
2018-07-24T17:37:15.984Z,101439.39
2018-07-24T17:39:45.245Z,101434.41
2018-07-24T17:42:13.577Z,101433.56
2018-07-24T17:44:43.925Z,101435.73
2018-07-24T17:47:12.281Z,101438.38
2018-07-24T17:49:40.583Z,101436.70
2018-07-24T17:52:10.033Z,101433.87
2018-07-24T17:54:38.323Z,101437.41
2018-07-24T17:57:06.635Z,101437.66
2018-07-24T17:59:35.026Z,101446.98
2018-07-24T18:02:03.877Z,101444.70
2018-07-24T18:04:33.477Z,101450.33
2018-07-24T18:07:01.794Z,101452.61
2018-07-24T18:09:30.222Z,101447.77
2018-07-24T18:11:58.558Z,101455.55
2018-07-24T18:14:26.868Z,101459.61
2018-07-24T18:16:59.137Z,101457.33
2018-07-24T18:19:27.469Z,101461.24
2018-07-24T18:21:56.839Z,101462.24
2018-07-24T18:24:29.123Z,101463.44
2018-07-24T18:26:58.606Z,101464.66
2018-07-24T18:29:26.902Z,101460.91
2018-07-24T18:31:55.315Z,101464.18
2018-07-24T18:34:23.656Z,101457.14
2018-07-24T18:36:52.043Z,101459.31
2018-07-24T18:39:21.365Z,101465.23
2018-07-24T18:41:50.785Z,101462.55
2018-07-24T18:44:19.082Z,101465.77
2018-07-24T18:46:47.413Z,101465.83
2018-07-24T18:49:20.549Z,101462.36
2018-07-24T18:51:48.822Z,101471.79
2018-07-24T18:54:17.126Z,101465.13
2018-07-24T18:56:48.917Z,101467.53
2018-07-24T18:59:17.337Z,101469.20
2018-07-24T19:01:45.610Z,101467.22
2018-07-24T19:04:13.937Z,101467.73
2018-07-24T19:06:42.238Z,101468.32
2018-07-24T19:09:11.506Z,101471.05
2018-07-24T19:11:40.106Z,101478.15
2018-07-24T19:14:08.771Z,101478.30
2018-07-24T19:16:37.069Z,101480.53
2018-07-24T19:19:05.364Z,101476.77
2018-07-24T19:21:33.774Z,101481.83
2018-07-24T19:24:02.057Z,101477.59
2018-07-24T19:26:30.362Z,101483.44
2018-07-24T19:28:58.685Z,101480.61
2018-07-24T19:31:27.008Z,101489.64
2018-07-24T19:33:56.369Z,101490.70
2018-07-24T19:36:24.651Z,101492.98
2018-07-24T19:38:52.960Z,101489.38
2018-07-24T19:41:21.181Z,101491.47
2018-07-24T19:43:49.520Z,101493.53
2018-07-24T19:46:17.725Z,101493.61
2018-07-24T19:48:45.981Z,101489.95
2018-07-24T19:51:14.334Z,101490.19
2018-07-24T19:53:42.596Z,101489.44
2018-07-24T19:56:11.061Z,101498.73
2018-07-24T19:58:39.350Z,101498.34
2018-07-24T20:01:07.609Z,101494.47
2018-07-24T20:03:35.976Z,101499.04
2018-07-24T20:06:04.281Z,101496.34
2018-07-24T20:08:32.557Z,101504.26
2018-07-24T20:11:00.826Z,101503.93
2018-07-24T20:13:29.107Z,101507.05
2018-07-24T20:15:57.568Z,101506.61
2018-07-24T20:18:25.873Z,101508.13
2018-07-24T20:20:54.126Z,101507.89
2018-07-24T20:23:22.481Z,101511.11
2018-07-24T20:25:50.679Z,101505.88
2018-07-24T20:28:19.116Z,101507.45
2018-07-24T20:30:47.570Z,101509.18
2018-07-24T20:33:15.852Z,101517.91
2018-07-24T20:35:44.322Z,101517.31
2018-07-24T20:38:12.481Z,101518.88
2018-07-24T20:40:40.737Z,101518.47
2018-07-24T20:43:09.053Z,101515.92
2018-07-24T20:45:37.343Z,101520.15
2018-07-24T20:48:07.071Z,101513.45
2018-07-24T20:50:36.928Z,101512.59
2018-07-24T20:53:05.354Z,101520.08
2018-07-24T20:55:33.742Z,101524.32
2018-07-24T20:58:02.042Z,101519.35
2018-07-24T21:00:30.366Z,101516.95
2018-07-24T21:03:00.622Z,101520.86
2018-07-24T21:05:28.949Z,101524.28
2018-07-24T21:07:58.264Z,101518.52
2018-07-24T21:10:28.661Z,101524.02
2018-07-24T21:12:57.060Z,101521.48
2018-07-24T21:15:25.329Z,101522.05
2018-07-24T21:17:54.620Z,101523.42
2018-07-24T21:20:25.033Z,101512.67
2018-07-24T21:22:53.261Z,101528.99
2018-07-24T21:25:22.652Z,101525.06
2018-07-24T21:27:50.941Z,101528.59
2018-07-24T21:30:19.269Z,101528.59
2018-07-24T21:32:47.541Z,101527.34
2018-07-24T21:35:15.840Z,101521.68
2018-07-24T21:37:46.535Z,101517.56
2018-07-24T21:40:15.934Z,101519.82
2018-07-24T21:42:44.287Z,101523.23
2018-07-24T21:45:12.564Z,101517.98
2018-07-24T21:47:40.866Z,101518.81
2018-07-24T21:50:09.142Z,101526.84
2018-07-24T21:52:37.453Z,101522.31
2018-07-24T21:55:05.729Z,101526.12
2018-07-24T21:57:34.033Z,101526.62
2018-07-24T22:00:02.344Z,101525.92
2018-07-24T22:02:30.637Z,101524.14
2018-07-24T22:04:58.931Z,101526.42
2018-07-24T22:07:28.233Z,101525.45
2018-07-24T22:09:56.502Z,101526.38
2018-07-24T22:12:24.797Z,101521.30
2018-07-24T22:14:53.081Z,101517.52
2018-07-24T22:17:21.407Z,101521.63
2018-07-24T22:19:50.779Z,101519.13
2018-07-24T22:22:19.213Z,101524.72
2018-07-24T22:24:47.500Z,101521.73
2018-07-24T22:27:15.843Z,101520.97
2018-07-24T22:29:45.165Z,101520.05
2018-07-24T22:32:13.465Z,101519.00
2018-07-24T22:34:41.731Z,101517.84
2018-07-24T22:37:10.086Z,101522.28
2018-07-24T22:39:38.365Z,101517.00
2018-07-24T22:42:07.745Z,101524.21
2018-07-24T22:44:36.050Z,101520.81
2018-07-24T22:47:04.325Z,101525.68
2018-07-24T22:49:32.613Z,101524.63
2018-07-24T22:52:00.905Z,101521.61
2018-07-24T22:54:32.477Z,101520.23
2018-07-24T22:57:00.832Z,101528.59
2018-07-24T22:59:31.160Z,101526.05
2018-07-24T23:01:59.445Z,101527.08
2018-07-24T23:04:27.742Z,101528.69
2018-07-24T23:06:56.078Z,101524.09
2018-07-24T23:09:24.377Z,101521.62
2018-07-24T23:11:54.341Z,101522.69
2018-07-24T23:14:22.641Z,101528.66
2018-07-24T23:16:51.091Z,101530.51
2018-07-24T23:19:19.421Z,101528.44
2018-07-24T23:21:48.714Z,101523.67
2018-07-24T23:24:20.341Z,101527.12
2018-07-24T23:26:49.669Z,101518.06
2018-07-24T23:29:17.957Z,101523.27
2018-07-24T23:31:46.333Z,101522.55
2018-07-24T23:34:14.672Z,101523.95
2018-07-24T23:36:44.001Z,101528.63
2018-07-24T23:39:14.356Z,101520.20
2018-07-24T23:41:42.680Z,101522.73
2018-07-24T23:44:10.965Z,101522.88
2018-07-24T23:46:39.598Z,101521.48
2018-07-24T23:50:11.004Z,101522.25
2018-07-24T23:52:40.309Z,101520.17
2018-07-24T23:55:08.580Z,101521.00
2018-07-24T23:57:36.955Z,101519.41
